createdAt,value
2023-05-09T00:00:05.101Z,92.60
2023-05-09T00:01:05.093Z,93.16
2023-05-09T00:02:05.085Z,92.75
2023-05-09T00:03:06.258Z,93.06
2023-05-09T00:04:05.092Z,93.67
2023-05-09T00:05:05.109Z,94.08
2023-05-09T00:06:05.051Z,93.71
2023-05-09T00:07:05.094Z,93.92
2023-05-09T00:08:05.065Z,94.43
2023-05-09T00:09:05.012Z,94.43
2023-05-09T00:10:06.018Z,94.48
2023-05-09T00:11:05.001Z,94.89
2023-05-09T00:12:05.066Z,95.50
2023-05-09T00:13:05.092Z,95.29
2023-05-09T00:14:04.997Z,95.09
2023-05-09T00:15:05.069Z,95.29
2023-05-09T00:16:05.087Z,95.70
2023-05-09T00:17:05.014Z,95.29
2023-05-09T00:18:05.101Z,95.09
2023-05-09T00:19:05.057Z,95.20
2023-05-09T00:20:05.052Z,95.40
2023-05-09T00:21:05.081Z,95.50
2023-05-09T00:22:04.950Z,95.50
2023-05-09T00:23:04.915Z,95.61
2023-05-09T00:24:04.899Z,95.50
2023-05-09T00:25:04.896Z,95.50
2023-05-09T00:26:04.916Z,95.20
2023-05-09T00:27:04.879Z,95.24
2023-05-09T00:28:04.874Z,95.86
2023-05-09T00:29:04.865Z,96.06
2023-05-09T00:30:04.872Z,96.06
2023-05-09T00:31:04.892Z,95.95
2023-05-09T00:32:04.888Z,96.06
2023-05-09T00:33:04.882Z,95.65
2023-05-09T00:34:04.841Z,95.95
2023-05-09T00:35:04.905Z,95.95
2023-05-09T00:36:04.842Z,95.95
2023-05-09T00:37:04.804Z,96.06
2023-05-09T00:38:04.842Z,95.54
2023-05-09T00:39:04.797Z,95.54
2023-05-09T00:40:04.808Z,95.34
2023-05-09T00:41:04.808Z,95.44
2023-05-09T00:42:04.776Z,95.34
2023-05-09T00:43:04.766Z,95.24
2023-05-09T00:44:04.757Z,95.34
2023-05-09T00:45:04.771Z,95.54
2023-05-09T00:46:04.812Z,95.14
2023-05-09T00:47:04.733Z,95.34
2023-05-09T00:48:04.774Z,95.49
2023-05-09T00:49:04.736Z,95.79
2023-05-09T00:50:04.734Z,96.00
2023-05-09T00:51:04.785Z,96.35
2023-05-09T00:52:04.758Z,96.04
2023-05-09T00:53:04.715Z,96.04
2023-05-09T00:54:05.557Z,96.15
2023-05-09T00:55:04.777Z,96.25
2023-05-09T00:56:04.655Z,96.20
2023-05-09T00:57:04.669Z,96.56
2023-05-09T00:58:04.649Z,95.90
2023-05-09T00:59:04.671Z,96.20
2023-05-09T01:00:04.653Z,96.00
2023-05-09T01:01:04.684Z,96.10
2023-05-09T01:02:04.649Z,95.59
2023-05-09T01:03:04.667Z,96.00
2023-05-09T01:04:04.625Z,96.15
2023-05-09T01:05:04.591Z,96.04
2023-05-09T01:06:04.599Z,95.94
2023-05-09T01:07:04.653Z,95.84
2023-05-09T01:08:04.595Z,96.04
2023-05-09T01:09:04.585Z,95.84
2023-05-09T01:10:04.550Z,96.25
2023-05-09T01:11:04.554Z,96.09
2023-05-09T01:12:04.543Z,96.04
2023-05-09T01:13:04.589Z,96.04
2023-05-09T01:14:04.521Z,95.74
2023-05-09T01:15:04.512Z,95.94
2023-05-09T01:16:04.555Z,95.84
2023-05-09T01:17:04.499Z,96.35
2023-05-09T01:18:04.586Z,96.04
2023-05-09T01:19:04.494Z,96.04
2023-05-09T01:20:04.491Z,96.04
2023-05-09T01:21:04.480Z,96.15
2023-05-09T01:22:04.494Z,96.15
2023-05-09T01:23:04.572Z,95.84
2023-05-09T01:24:04.464Z,95.84
2023-05-09T01:25:04.449Z,96.04
2023-05-09T01:26:04.440Z,96.25
2023-05-09T01:27:04.455Z,96.25
2023-05-09T01:28:04.419Z,95.94
2023-05-09T01:29:04.419Z,95.94
2023-05-09T01:30:04.428Z,96.04
2023-05-09T01:31:04.408Z,95.94
2023-05-09T01:32:04.426Z,96.04
2023-05-09T01:33:04.450Z,96.04
2023-05-09T01:34:04.392Z,95.74
2023-05-09T01:35:04.393Z,96.04
2023-05-09T01:36:04.392Z,95.94
2023-05-09T01:37:04.374Z,96.09
2023-05-09T01:38:04.337Z,96.04
2023-05-09T01:39:04.426Z,95.68
2023-05-09T01:40:04.340Z,96.15
2023-05-09T01:41:04.347Z,96.40
2023-05-09T01:42:04.310Z,96.70
2023-05-09T01:43:04.302Z,96.50
2023-05-09T01:44:04.297Z,96.70
2023-05-09T01:45:04.288Z,96.75
2023-05-09T01:46:04.301Z,97.12
2023-05-09T01:47:04.276Z,97.57
2023-05-09T01:48:04.330Z,97.02
2023-05-09T01:49:04.261Z,97.02
2023-05-09T01:50:04.282Z,96.81
2023-05-09T01:51:04.262Z,96.70
2023-05-09T01:52:04.240Z,96.60
2023-05-09T01:53:04.228Z,96.40
2023-05-09T01:54:04.210Z,96.09
2023-05-09T01:55:04.325Z,96.56
2023-05-09T01:56:04.205Z,96.45
2023-05-09T01:57:04.197Z,96.45
2023-05-09T01:58:04.197Z,96.45
2023-05-09T01:59:04.190Z,96.66
2023-05-09T02:00:04.204Z,96.50
2023-05-09T02:01:04.197Z,95.98
2023-05-09T02:02:04.177Z,96.70
2023-05-09T02:03:04.168Z,96.70
2023-05-09T02:04:04.169Z,96.70
2023-05-09T02:05:04.156Z,96.25
2023-05-09T02:06:04.133Z,96.35
2023-05-09T02:07:04.122Z,95.64
2023-05-09T02:08:04.116Z,96.15
2023-05-09T02:09:04.140Z,96.15
2023-05-09T02:10:04.104Z,96.19
2023-05-09T02:11:04.204Z,96.25
2023-05-09T02:12:04.077Z,96.15
2023-05-09T02:13:04.162Z,96.30
2023-05-09T02:14:04.090Z,96.40
2023-05-09T02:15:04.052Z,96.40
2023-05-09T02:16:04.060Z,96.40
2023-05-09T02:17:04.081Z,95.78
2023-05-09T02:18:04.101Z,96.30
2023-05-09T02:19:04.060Z,96.50
2023-05-09T02:20:04.024Z,96.19
2023-05-09T02:21:04.042Z,97.02
2023-05-09T02:22:04.003Z,97.06
2023-05-09T02:23:04.043Z,97.37
2023-05-09T02:24:03.986Z,97.67
2023-05-09T02:25:03.978Z,97.88
2023-05-09T02:26:03.980Z,97.67
2023-05-09T02:27:04.045Z,97.78
2023-05-09T02:28:03.983Z,97.67
2023-05-09T02:29:03.952Z,97.67
2023-05-09T02:30:03.937Z,97.88
2023-05-09T02:31:03.928Z,97.57
2023-05-09T02:32:03.972Z,97.37
2023-05-09T02:33:03.993Z,97.78
2023-05-09T02:34:03.925Z,97.72
2023-05-09T02:35:03.910Z,98.13
2023-05-09T02:36:03.937Z,98.44
2023-05-09T02:37:05.031Z,98.96
2023-05-09T02:38:03.887Z,98.75
2023-05-09T02:39:03.873Z,98.90
2023-05-09T02:40:03.868Z,98.85
2023-05-09T02:41:03.883Z,99.21
2023-05-09T02:42:03.876Z,98.96
2023-05-09T02:43:03.917Z,98.65
2023-05-09T02:44:03.836Z,98.65
2023-05-09T02:45:03.839Z,98.44
2023-05-09T02:46:03.872Z,98.44
2023-05-09T02:47:03.848Z,98.38
2023-05-09T02:48:05.670Z,98.75
2023-05-09T02:49:03.790Z,98.44
2023-05-09T02:50:04.812Z,98.49
2023-05-09T02:51:03.865Z,98.03
2023-05-09T02:52:03.793Z,98.28
2023-05-09T02:53:03.789Z,98.96
2023-05-09T02:54:03.755Z,98.90
2023-05-09T02:55:03.763Z,98.75
2023-05-09T02:56:03.766Z,98.85
2023-05-09T02:57:03.751Z,98.79
2023-05-09T02:58:13.614Z,98.90
2023-05-09T02:59:05.796Z,99.00
2023-05-09T03:00:03.713Z,99.00
2023-05-09T03:01:03.797Z,99.00
2023-05-09T03:02:03.697Z,98.96
2023-05-09T03:03:03.730Z,98.49
2023-05-09T03:04:03.680Z,98.69
2023-05-09T03:05:03.750Z,98.13
2023-05-09T03:06:03.693Z,98.49
2023-05-09T03:07:03.655Z,98.24
2023-05-09T03:08:03.647Z,98.13
2023-05-09T03:09:03.659Z,98.44
2023-05-09T03:10:03.668Z,98.38
2023-05-09T03:11:03.665Z,98.13
2023-05-09T03:12:03.642Z,98.65
2023-05-09T03:13:03.687Z,99.10
2023-05-09T03:14:03.608Z,98.28
2023-05-09T03:15:03.744Z,98.38
2023-05-09T03:16:03.640Z,98.38
2023-05-09T03:17:03.585Z,98.38
2023-05-09T03:18:03.665Z,98.49
2023-05-09T03:19:03.603Z,98.33
2023-05-09T03:20:04.472Z,99.00
2023-05-09T03:21:04.545Z,99.05
2023-05-09T03:22:03.540Z,99.00
2023-05-09T03:23:03.540Z,99.00
2023-05-09T03:24:03.555Z,98.90
2023-05-09T03:25:03.515Z,98.33
2023-05-09T03:26:03.520Z,98.38
2023-05-09T03:27:03.505Z,98.43
2023-05-09T03:28:03.497Z,98.49
2023-05-09T03:29:03.519Z,98.28
2023-05-09T03:30:03.507Z,98.69
2023-05-09T03:31:03.577Z,98.28
2023-05-09T03:32:03.475Z,98.79
2023-05-09T03:33:03.558Z,98.63
2023-05-09T03:34:03.481Z,98.79
2023-05-09T03:35:03.436Z,99.21
2023-05-09T03:36:03.458Z,98.79
2023-05-09T03:37:03.430Z,99.00
2023-05-09T03:38:03.460Z,99.00
2023-05-09T03:39:03.414Z,98.94
2023-05-09T03:40:03.405Z,98.90
2023-05-09T03:41:03.410Z,98.90
2023-05-09T03:42:03.390Z,98.79
2023-05-09T03:43:03.431Z,99.00
2023-05-09T03:44:03.406Z,98.90
2023-05-09T03:45:03.392Z,99.10
2023-05-09T03:46:03.372Z,98.59
2023-05-09T03:47:03.533Z,99.00
2023-05-09T03:48:03.403Z,98.90
2023-05-09T03:49:03.347Z,98.79
2023-05-09T03:50:03.353Z,98.90
2023-05-09T03:51:03.341Z,98.90
2023-05-09T03:52:03.354Z,98.96
2023-05-09T03:53:03.314Z,98.59
2023-05-09T03:54:03.315Z,98.49
2023-05-09T03:55:03.293Z,98.33
2023-05-09T03:56:04.297Z,98.44
2023-05-09T03:57:03.308Z,98.13
2023-05-09T03:58:03.274Z,98.03
2023-05-09T03:59:03.281Z,97.72
2023-05-09T04:00:03.279Z,97.62
2023-05-09T04:01:03.260Z,96.90
2023-05-09T04:02:03.375Z,97.41
2023-05-09T04:03:03.309Z,96.59
2023-05-09T04:04:03.277Z,96.59
2023-05-09T04:05:03.248Z,96.48
2023-05-09T04:06:03.233Z,96.73
2023-05-09T04:07:03.231Z,96.73
2023-05-09T04:08:03.207Z,96.80
2023-05-09T04:09:03.203Z,97.15
2023-05-09T04:10:03.197Z,96.69
2023-05-09T04:11:03.189Z,96.33
2023-05-09T04:12:04.165Z,96.73
2023-05-09T04:13:03.260Z,96.48
2023-05-09T04:14:03.159Z,96.48
2023-05-09T04:15:03.169Z,97.00
2023-05-09T04:16:03.182Z,96.65
2023-05-09T04:17:03.373Z,96.60
2023-05-09T04:18:04.209Z,96.04
2023-05-09T04:19:03.203Z,95.53
2023-05-09T04:20:03.181Z,94.56
2023-05-09T04:21:03.132Z,93.54
2023-05-09T04:22:03.183Z,93.33
2023-05-09T04:23:03.106Z,92.88
2023-05-09T04:24:03.090Z,92.57
2023-05-09T04:25:03.113Z,91.91
2023-05-09T04:26:03.096Z,91.16
2023-05-09T04:27:03.067Z,91.16
2023-05-09T04:28:03.056Z,89.84
2023-05-09T04:29:03.051Z,89.39
2023-05-09T04:30:03.076Z,88.64
2023-05-09T04:31:03.108Z,87.37
2023-05-09T04:32:03.143Z,86.88
2023-05-09T04:33:03.086Z,85.96
2023-05-09T04:34:03.042Z,84.86
2023-05-09T04:35:03.112Z,83.39
2023-05-09T04:36:02.994Z,82.94
2023-05-09T04:37:03.019Z,81.62
2023-05-09T04:38:03.003Z,80.70
2023-05-09T04:39:03.007Z,80.46
2023-05-09T04:40:02.963Z,80.11
2023-05-09T04:41:02.958Z,78.76
2023-05-09T04:42:02.945Z,79.37
2023-05-09T04:43:02.936Z,77.81
2023-05-09T04:44:02.957Z,77.67
2023-05-09T04:45:02.954Z,78.93
2023-05-09T04:46:02.943Z,79.99
2023-05-09T04:47:02.909Z,80.70
2023-05-09T04:48:02.970Z,80.29
2023-05-09T04:49:02.930Z,81.56
2023-05-09T04:50:02.897Z,81.96
2023-05-09T04:51:02.979Z,82.43
2023-05-09T04:52:02.875Z,80.70
2023-05-09T04:53:02.896Z,81.18
2023-05-09T04:54:02.876Z,82.78
2023-05-09T04:55:02.907Z,82.23
2023-05-09T04:56:02.841Z,81.52
2023-05-09T04:57:13.665Z,80.94
2023-05-09T04:58:04.850Z,82.37
2023-05-09T04:59:02.818Z,81.35
2023-05-09T05:00:02.822Z,81.25
2023-05-09T05:01:02.811Z,80.43
2023-05-09T05:02:02.972Z,81.52
2023-05-09T05:03:02.821Z,81.27
2023-05-09T05:04:02.779Z,79.75
2023-05-09T05:05:11.622Z,80.36
2023-05-09T05:06:04.841Z,80.80
2023-05-09T05:07:02.830Z,81.58
2023-05-09T05:08:02.769Z,80.32
2023-05-09T05:09:02.738Z,79.50
2023-05-09T05:10:02.741Z,80.46
2023-05-09T05:11:02.720Z,81.68
2023-05-09T05:12:04.821Z,80.63
2023-05-09T05:13:03.746Z,79.50
2023-05-09T05:14:02.711Z,77.80
2023-05-09T05:15:02.700Z,77.70
2023-05-09T05:16:02.709Z,78.92
2023-05-09T05:17:02.705Z,78.17
2023-05-09T05:18:02.711Z,77.91
2023-05-09T05:19:02.676Z,79.50
2023-05-09T05:20:02.708Z,80.18
2023-05-09T05:21:02.680Z,79.77
2023-05-09T05:22:02.749Z,79.47
2023-05-09T05:23:02.639Z,80.65
2023-05-09T05:24:02.737Z,79.02
2023-05-09T05:25:02.678Z,79.85
2023-05-09T05:26:02.748Z,82.94
2023-05-09T05:27:02.610Z,82.94
2023-05-09T05:28:02.607Z,82.23
2023-05-09T05:29:02.589Z,82.43
2023-05-09T05:30:02.583Z,82.71
2023-05-09T05:31:02.605Z,84.90
2023-05-09T05:32:02.585Z,84.64
2023-05-09T05:33:02.583Z,81.49
2023-05-09T05:34:02.549Z,76.78
2023-05-09T05:35:02.612Z,74.24
2023-05-09T05:36:02.559Z,73.12
2023-05-09T05:37:02.562Z,72.88
2023-05-09T05:38:02.608Z,70.19
2023-05-09T05:39:02.508Z,68.24
2023-05-09T05:40:02.566Z,68.64
2023-05-09T05:41:02.496Z,67.36
2023-05-09T05:42:35.258Z,70.02
2023-05-09T05:43:02.483Z,72.14
2023-05-09T05:44:02.477Z,71.64
2023-05-09T05:45:02.491Z,73.05
2023-05-09T05:46:02.479Z,72.28
2023-05-09T05:47:02.477Z,73.12
2023-05-09T05:48:02.558Z,72.68
2023-05-09T05:49:02.458Z,72.85
2023-05-09T05:50:02.451Z,72.92
2023-05-09T05:51:02.410Z,73.86
2023-05-09T05:52:03.402Z,72.28
2023-05-09T05:53:02.403Z,73.22
2023-05-09T05:54:02.573Z,74.84
2023-05-09T05:55:02.388Z,74.30
2023-05-09T05:56:02.394Z,77.66
2023-05-09T05:57:02.408Z,76.14
2023-05-09T05:58:02.377Z,76.10
2023-05-09T05:59:02.384Z,78.06
2023-05-09T06:00:02.351Z,77.15
2023-05-09T06:01:02.352Z,77.93
2023-05-09T06:02:02.390Z,77.66
2023-05-09T06:03:02.406Z,77.76
2023-05-09T06:04:02.391Z,79.63
2023-05-09T06:05:02.316Z,80.07
2023-05-09T06:06:02.311Z,81.73
2023-05-09T06:07:02.315Z,81.77
2023-05-09T06:08:02.381Z,81.67
2023-05-09T06:09:02.306Z,80.82
2023-05-09T06:10:02.268Z,80.00
2023-05-09T06:11:02.263Z,81.37
2023-05-09T06:12:02.250Z,80.79
2023-05-09T06:13:02.343Z,82.32
2023-05-09T06:14:02.251Z,82.70
2023-05-09T06:15:02.239Z,83.15
2023-05-09T06:16:15.021Z,83.21
2023-05-09T06:17:04.266Z,84.00
2023-05-09T06:18:02.270Z,84.17
2023-05-09T06:19:02.222Z,83.51
2023-05-09T06:20:02.191Z,83.96
2023-05-09T06:21:02.203Z,85.22
2023-05-09T06:22:02.239Z,85.69
2023-05-09T06:23:02.176Z,85.80
2023-05-09T06:24:11.892Z,85.80
2023-05-09T06:25:04.161Z,86.37
2023-05-09T06:26:02.235Z,85.82
2023-05-09T06:27:02.165Z,84.29
2023-05-09T06:28:02.130Z,84.33
2023-05-09T06:29:02.174Z,85.69
2023-05-09T06:30:08.309Z,87.08
2023-05-09T06:31:04.225Z,85.88
2023-05-09T06:32:02.136Z,83.78
2023-05-09T06:33:02.120Z,83.98
2023-05-09T06:34:02.100Z,84.86
2023-05-09T06:35:02.084Z,84.11
2023-05-09T06:36:02.098Z,83.46
2023-05-09T06:37:02.065Z,82.65
2023-05-09T06:38:02.068Z,82.85
2023-05-09T06:39:02.103Z,82.81
2023-05-09T06:40:02.054Z,82.26
2023-05-09T06:41:02.062Z,82.75
2023-05-09T06:42:02.123Z,83.53
2023-05-09T06:43:02.021Z,82.61
2023-05-09T06:44:02.012Z,81.19
2023-05-09T06:45:17.113Z,82.87
2023-05-09T06:46:02.046Z,82.53
2023-05-09T06:47:01.997Z,81.45
2023-05-09T06:48:02.012Z,82.61
2023-05-09T06:49:02.014Z,82.89
2023-05-09T06:50:02.010Z,84.28
2023-05-09T06:51:02.017Z,83.73
2023-05-09T06:52:01.955Z,83.73
2023-05-09T06:53:01.959Z,83.48
2023-05-09T06:54:01.940Z,83.32
2023-05-09T06:55:02.043Z,83.36
2023-05-09T06:56:01.924Z,85.76
2023-05-09T06:57:01.911Z,83.18
2023-05-09T06:58:01.990Z,84.26
2023-05-09T06:59:01.919Z,83.40
2023-05-09T07:00:02.389Z,81.58
2023-05-09T07:01:01.893Z,81.01
2023-05-09T07:02:01.956Z,82.37
2023-05-09T07:03:01.924Z,82.87
2023-05-09T07:04:01.913Z,82.53
2023-05-09T07:05:01.957Z,82.03
2023-05-09T07:06:01.850Z,82.39
2023-05-09T07:07:01.848Z,82.28
2023-05-09T07:08:01.832Z,79.91
2023-05-09T07:09:01.853Z,77.14
2023-05-09T07:10:10.683Z,75.72
2023-05-09T07:11:03.812Z,76.46
2023-05-09T07:12:01.813Z,78.39
2023-05-09T07:13:01.807Z,77.17
2023-05-09T07:14:01.906Z,76.50
2023-05-09T07:15:01.807Z,76.74
2023-05-09T07:16:01.806Z,76.81
2023-05-09T07:17:18.153Z,77.59
2023-05-09T07:18:03.794Z,77.45
2023-05-09T07:19:01.775Z,77.95
2023-05-09T07:20:01.743Z,77.45
2023-05-09T07:21:01.734Z,78.83
2023-05-09T07:22:01.753Z,76.87
2023-05-09T07:23:01.824Z,77.78
2023-05-09T07:24:01.754Z,75.65
2023-05-09T07:25:01.703Z,75.96
2023-05-09T07:26:01.699Z,75.01
2023-05-09T07:27:01.692Z,74.51
2023-05-09T07:28:01.700Z,75.62
2023-05-09T07:29:01.684Z,75.76
2023-05-09T07:30:01.764Z,76.90
2023-05-09T07:31:01.658Z,77.17
2023-05-09T07:32:01.730Z,76.46
2023-05-09T07:33:01.898Z,75.65
2023-05-09T07:34:01.637Z,75.76
2023-05-09T07:35:01.634Z,75.52
2023-05-09T07:36:01.619Z,75.52
2023-05-09T07:37:01.637Z,75.18
2023-05-09T07:38:01.597Z,74.30
2023-05-09T07:39:01.600Z,73.49
2023-05-09T07:40:01.600Z,72.48
2023-05-09T07:41:01.610Z,73.32
2023-05-09T07:42:01.605Z,73.43
2023-05-09T07:43:01.572Z,73.52
2023-05-09T07:44:01.551Z,71.73
2023-05-09T07:45:01.541Z,68.07
2023-05-09T07:46:01.756Z,66.83
2023-05-09T07:47:01.553Z,64.41
2023-05-09T07:48:01.605Z,65.62
2023-05-09T07:49:01.525Z,64.69
2023-05-09T07:50:01.524Z,65.19
2023-05-09T07:51:01.524Z,64.75
2023-05-09T07:52:01.492Z,66.03
2023-05-09T07:53:01.498Z,66.33
2023-05-09T07:54:01.475Z,63.79
2023-05-09T07:55:01.499Z,63.56
2023-05-09T07:56:01.499Z,63.05
2023-05-09T07:57:01.444Z,62.15
2023-05-09T07:58:01.447Z,62.05
2023-05-09T07:59:01.448Z,61.71
2023-05-09T08:00:01.459Z,61.94
2023-05-09T08:01:01.450Z,62.85
2023-05-09T08:02:01.524Z,62.27
2023-05-09T08:03:01.633Z,63.39
2023-05-09T08:04:01.502Z,61.98
2023-05-09T08:05:01.435Z,61.94
2023-05-09T08:06:01.385Z,62.45
2023-05-09T08:07:01.373Z,62.92
2023-05-09T08:08:01.367Z,61.71
2023-05-09T08:09:02.363Z,60.28
2023-05-09T08:10:01.375Z,60.48
2023-05-09T08:11:01.380Z,60.88
2023-05-09T08:12:01.338Z,60.68
2023-05-09T08:13:01.368Z,60.28
2023-05-09T08:14:01.346Z,61.58
2023-05-09T08:15:01.382Z,61.05
2023-05-09T08:16:01.364Z,61.02
2023-05-09T08:17:01.301Z,61.15
2023-05-09T08:18:01.433Z,59.85
2023-05-09T08:19:01.309Z,60.12
2023-05-09T08:20:01.308Z,60.15
2023-05-09T08:21:01.270Z,60.22
2023-05-09T08:22:01.299Z,60.19
2023-05-09T08:23:02.262Z,60.80
2023-05-09T08:24:01.279Z,59.25
2023-05-09T08:25:01.248Z,60.15
2023-05-09T08:26:01.252Z,60.93
2023-05-09T08:27:01.236Z,59.34
2023-05-09T08:28:01.249Z,59.72
2023-05-09T08:29:01.247Z,61.00
2023-05-09T08:30:01.232Z,59.96
2023-05-09T08:31:01.267Z,59.48
2023-05-09T08:32:01.207Z,58.85
2023-05-09T08:33:01.257Z,57.09
2023-05-09T08:34:01.253Z,55.87
2023-05-09T08:35:01.157Z,56.34
2023-05-09T08:36:01.180Z,54.49
2023-05-09T08:37:01.157Z,55.40
2023-05-09T08:38:01.190Z,54.69
2023-05-09T08:39:01.135Z,56.12
2023-05-09T08:40:01.126Z,56.72
2023-05-09T08:41:01.121Z,56.35
2023-05-09T08:42:01.116Z,56.12
2023-05-09T08:43:01.127Z,55.55
2023-05-09T08:44:01.101Z,58.53
2023-05-09T08:45:01.090Z,58.89
2023-05-09T08:46:01.213Z,58.81
2023-05-09T08:47:01.270Z,60.25
2023-05-09T08:48:01.120Z,59.96
2023-05-09T08:49:01.061Z,58.70
2023-05-09T08:50:01.151Z,58.70
2023-05-09T08:51:01.072Z,59.11
2023-05-09T08:52:01.063Z,58.07
2023-05-09T08:53:01.047Z,57.33
2023-05-09T08:54:02.018Z,58.46
2023-05-09T08:55:01.032Z,59.46
2023-05-09T08:56:01.009Z,58.66
2023-05-09T08:57:01.016Z,57.73
2023-05-09T08:58:00.987Z,58.03
2023-05-09T08:59:00.998Z,57.26
2023-05-09T09:00:00.969Z,58.86
2023-05-09T09:01:00.965Z,57.56
2023-05-09T09:02:01.012Z,58.66
2023-05-09T09:03:00.969Z,58.26
2023-05-09T09:04:00.956Z,58.06
2023-05-09T09:05:00.948Z,59.26
2023-05-09T09:06:01.090Z,58.23
2023-05-09T09:07:00.961Z,58.00
2023-05-09T09:08:00.914Z,58.58
2023-05-09T09:09:00.910Z,56.67
2023-05-09T09:10:00.904Z,58.07
2023-05-09T09:11:00.929Z,58.35
2023-05-09T09:12:00.905Z,57.52
2023-05-09T09:13:00.879Z,56.42
2023-05-09T09:14:01.851Z,55.30
2023-05-09T09:15:00.889Z,58.43
2023-05-09T09:16:00.949Z,59.44
2023-05-09T09:17:00.878Z,59.16
2023-05-09T09:18:01.078Z,60.14
2023-05-09T09:19:00.828Z,59.74
2023-05-09T09:20:00.843Z,60.03
2023-05-09T09:21:00.838Z,58.18
2023-05-09T09:22:00.900Z,57.40
2023-05-09T09:23:00.801Z,57.76
2023-05-09T09:24:00.802Z,59.06
2023-05-09T09:25:00.836Z,59.79
2023-05-09T09:26:01.017Z,60.06
2023-05-09T09:27:00.768Z,59.19
2023-05-09T09:28:00.756Z,59.22
2023-05-09T09:29:00.764Z,59.75
2023-05-09T09:30:00.794Z,59.98
2023-05-09T09:31:00.743Z,60.18
2023-05-09T09:32:00.777Z,59.55
2023-05-09T09:33:00.802Z,60.05
2023-05-09T09:34:00.734Z,60.60
2023-05-09T09:35:01.751Z,59.56
2023-05-09T09:36:00.709Z,59.06
2023-05-09T09:37:00.735Z,58.46
2023-05-09T09:38:00.775Z,58.66
2023-05-09T09:39:00.705Z,57.76
2023-05-09T09:40:00.678Z,58.26
2023-05-09T09:41:00.661Z,58.18
2023-05-09T09:42:00.783Z,58.89
2023-05-09T09:43:00.652Z,59.09
2023-05-09T09:44:00.669Z,58.79
2023-05-09T09:45:00.627Z,58.59
2023-05-09T09:46:00.653Z,59.49
2023-05-09T09:47:00.611Z,58.89
2023-05-09T09:48:00.660Z,59.65
2023-05-09T09:49:00.629Z,60.05
2023-05-09T09:50:00.601Z,60.08
2023-05-09T09:51:00.585Z,59.34
2023-05-09T09:52:00.585Z,59.25
2023-05-09T09:53:00.606Z,59.65
2023-05-09T09:54:00.564Z,59.95
2023-05-09T09:55:00.551Z,60.25
2023-05-09T09:56:00.564Z,60.98
2023-05-09T09:57:00.546Z,60.48
2023-05-09T09:58:00.557Z,60.48
2023-05-09T09:59:00.522Z,60.48
2023-05-09T10:00:00.545Z,59.88
2023-05-09T10:01:00.515Z,58.87
2023-05-09T10:02:00.530Z,60.00
2023-05-09T10:03:00.550Z,60.81
2023-05-09T10:04:01.522Z,61.31
2023-05-09T10:05:00.477Z,61.21
2023-05-09T10:06:00.467Z,61.18
2023-05-09T10:07:00.496Z,61.11
2023-05-09T10:08:00.468Z,60.61
2023-05-09T10:09:00.447Z,60.08
2023-05-09T10:10:00.539Z,59.85
2023-05-09T10:11:00.432Z,59.72
2023-05-09T10:12:00.450Z,58.94
2023-05-09T10:13:00.452Z,59.62
2023-05-09T10:14:00.415Z,59.45
2023-05-09T10:15:00.406Z,59.05
2023-05-09T10:16:00.596Z,58.75
2023-05-09T10:17:00.455Z,60.38
2023-05-09T10:18:01.506Z,61.18
2023-05-09T10:19:00.396Z,61.18
2023-05-09T10:20:00.363Z,61.71
2023-05-09T10:21:00.399Z,61.71
2023-05-09T10:22:00.359Z,61.11
2023-05-09T10:23:00.344Z,60.11
2023-05-09T10:24:00.355Z,61.11
2023-05-09T10:25:00.339Z,59.20
2023-05-09T10:26:00.419Z,58.97
2023-05-09T10:27:00.319Z,59.55
2023-05-09T10:28:00.307Z,58.87
2023-05-09T10:29:00.300Z,60.25
2023-05-09T10:30:00.325Z,59.65
2023-05-09T10:31:00.337Z,59.25
2023-05-09T10:32:00.268Z,59.30
2023-05-09T10:33:00.296Z,60.74
2023-05-09T10:34:00.256Z,61.34
2023-05-09T10:35:00.278Z,60.31
2023-05-09T10:36:00.278Z,60.24
2023-05-09T10:37:00.243Z,60.47
2023-05-09T10:38:00.226Z,60.47
2023-05-09T10:39:00.222Z,60.24
2023-05-09T10:40:00.231Z,60.36
2023-05-09T10:41:00.199Z,60.24
2023-05-09T10:42:00.281Z,60.21
2023-05-09T10:43:00.222Z,60.81
2023-05-09T10:44:00.203Z,60.81
2023-05-09T10:45:00.264Z,60.21
2023-05-09T10:46:00.168Z,60.51
2023-05-09T10:47:00.292Z,60.51
2023-05-09T10:48:00.261Z,60.33
2023-05-09T10:49:00.174Z,60.00
2023-05-09T10:50:00.165Z,60.25
2023-05-09T10:51:00.125Z,59.89
2023-05-09T10:52:00.145Z,59.01
2023-05-09T10:53:00.128Z,59.14
2023-05-09T10:54:00.146Z,59.45
2023-05-09T10:55:00.144Z,58.81
2023-05-09T10:56:00.122Z,58.22
2023-05-09T10:57:00.099Z,58.92
2023-05-09T10:58:00.192Z,59.22
2023-05-09T10:59:00.111Z,60.35
2023-05-09T11:00:00.077Z,59.14
2023-05-09T11:01:00.099Z,59.25
2023-05-09T11:02:00.080Z,59.55
2023-05-09T11:03:00.180Z,58.57
2023-05-09T11:04:00.156Z,59.14
2023-05-09T11:05:00.030Z,58.84
2023-05-09T11:06:00.075Z,59.85
2023-05-09T11:07:00.027Z,58.92
2023-05-09T11:08:00.054Z,57.71
2023-05-09T11:08:59.995Z,57.71
2023-05-09T11:09:59.991Z,58.62
2023-05-09T11:10:59.982Z,57.81
2023-05-09T11:11:59.986Z,58.89
2023-05-09T11:13:00.029Z,59.46
2023-05-09T11:14:00.050Z,58.26
2023-05-09T11:14:59.968Z,58.69
2023-05-09T11:16:00.080Z,59.49
2023-05-09T11:16:59.977Z,58.59
2023-05-09T11:18:00.005Z,57.68
2023-05-09T11:18:59.934Z,58.36
2023-05-09T11:19:59.930Z,58.66
2023-05-09T11:20:59.938Z,58.66
2023-05-09T11:21:59.940Z,58.29
2023-05-09T11:22:59.903Z,59.39
2023-05-09T11:23:59.888Z,58.26
2023-05-09T11:24:59.899Z,58.83
2023-05-09T11:25:59.882Z,57.33
2023-05-09T11:26:59.894Z,56.52
2023-05-09T11:27:59.865Z,57.73
2023-05-09T11:28:59.861Z,58.13
2023-05-09T11:29:59.927Z,57.33
2023-05-09T11:30:59.868Z,57.86
2023-05-09T11:31:59.888Z,57.48
2023-05-09T11:32:59.861Z,56.85
2023-05-09T11:33:59.831Z,56.26
2023-05-09T11:34:59.815Z,57.53
2023-05-09T11:35:59.815Z,58.03
2023-05-09T11:36:59.890Z,57.73
2023-05-09T11:37:59.785Z,56.13
2023-05-09T11:38:59.775Z,56.85
2023-05-09T11:39:59.772Z,58.66
2023-05-09T11:40:59.799Z,58.66
2023-05-09T11:42:32.427Z,57.56
2023-05-09T11:42:59.746Z,57.56
2023-05-09T11:43:59.751Z,59.36
2023-05-09T11:44:59.984Z,57.06
2023-05-09T11:46:00.000Z,57.68
2023-05-09T11:46:59.809Z,57.86
2023-05-09T11:47:59.735Z,58.46
2023-05-09T11:48:59.716Z,57.28
2023-05-09T11:49:59.719Z,57.39
2023-05-09T11:50:59.722Z,57.26
2023-05-09T11:51:59.681Z,58.46
2023-05-09T11:52:59.671Z,58.83
2023-05-09T11:53:59.662Z,57.90
2023-05-09T11:54:59.778Z,57.98
2023-05-09T11:55:59.640Z,58.45
2023-05-09T11:56:59.822Z,56.74
2023-05-09T11:57:59.645Z,56.15
2023-05-09T11:58:59.703Z,56.15
2023-05-09T11:59:59.867Z,56.27
2023-05-09T12:00:59.608Z,56.48
2023-05-09T12:01:59.701Z,57.07
2023-05-09T12:02:59.618Z,55.37
2023-05-09T12:03:59.708Z,55.37
2023-05-09T12:04:59.605Z,56.55
2023-05-09T12:05:59.567Z,54.94
2023-05-09T12:06:59.571Z,56.82
2023-05-09T12:07:59.572Z,55.19
2023-05-09T12:08:59.574Z,54.39
2023-05-09T12:09:59.577Z,54.29
2023-05-09T12:10:59.538Z,55.19
2023-05-09T12:11:59.543Z,54.39
2023-05-09T12:12:59.539Z,53.19
2023-05-09T12:13:59.609Z,53.99
2023-05-09T12:14:59.506Z,54.32
2023-05-09T12:15:59.555Z,54.92
2023-05-09T12:16:59.490Z,55.02
2023-05-09T12:17:59.622Z,56.32
2023-05-09T12:18:59.520Z,54.90
2023-05-09T12:19:59.455Z,53.09
2023-05-09T12:20:59.447Z,53.49
2023-05-09T12:21:59.452Z,55.59
2023-05-09T12:22:59.476Z,53.57
2023-05-09T12:23:59.486Z,53.77
2023-05-09T12:24:59.432Z,53.24
2023-05-09T12:25:59.425Z,54.64
2023-05-09T12:26:59.494Z,53.31
2023-05-09T12:27:59.427Z,51.64
2023-05-09T12:28:59.414Z,53.14
2023-05-09T12:29:59.399Z,52.87
2023-05-09T12:30:59.439Z,51.97
2023-05-09T12:31:59.376Z,53.04
2023-05-09T12:32:59.422Z,53.04
2023-05-09T12:33:59.448Z,53.22
2023-05-09T12:34:59.349Z,51.42
2023-05-09T12:35:59.336Z,52.42
2023-05-09T12:36:59.382Z,52.62
2023-05-09T12:37:59.348Z,52.89
2023-05-09T12:38:59.352Z,51.27
2023-05-09T12:39:59.340Z,51.07
2023-05-09T12:41:00.590Z,51.92
2023-05-09T12:42:01.943Z,53.02
2023-05-09T12:43:00.315Z,52.84
2023-05-09T12:43:59.280Z,53.57
2023-05-09T12:44:59.283Z,51.59
2023-05-09T12:45:59.275Z,53.12
2023-05-09T12:46:59.329Z,52.49
2023-05-09T12:47:59.278Z,52.89
2023-05-09T12:48:59.254Z,51.20
2023-05-09T12:49:59.334Z,51.79
2023-05-09T12:50:59.260Z,52.37
2023-05-09T12:51:59.261Z,51.67